createdAt,value
2023-02-07T00:01:14.879Z,273.99
2023-02-07T00:04:39.255Z,261.89
2023-02-07T00:08:00.107Z,266.65
2023-02-07T00:11:37.114Z,295.28
2023-02-07T00:14:57.768Z,283.98
2023-02-07T00:18:18.480Z,298.29
2023-02-07T00:21:39.452Z,276.36
2023-02-07T00:25:09.603Z,251.24
2023-02-07T00:28:33.130Z,264.46
2023-02-07T00:31:56.974Z,235.25
2023-02-07T00:35:19.197Z,178.75
2023-02-07T00:38:40.165Z,246.69
2023-02-07T00:42:08.081Z,256.69
2023-02-07T00:45:40.586Z,218.82
2023-02-07T00:49:07.494Z,218.43
2023-02-07T00:52:28.181Z,234.25
2023-02-07T00:55:48.880Z,233.80
2023-02-07T00:59:10.440Z,232.48
2023-02-07T01:02:33.774Z,233.41
2023-02-07T01:05:54.690Z,229.17
2023-02-07T01:09:29.177Z,233.99
2023-02-07T01:12:55.685Z,207.05
2023-02-07T01:16:28.397Z,194.90
2023-02-07T01:19:52.078Z,185.44
2023-02-07T01:23:15.622Z,187.65
2023-02-07T01:26:45.646Z,222.58
2023-02-07T01:30:11.881Z,229.91
2023-02-07T01:33:32.655Z,238.30
2023-02-07T01:36:56.139Z,224.95
2023-02-07T01:40:17.283Z,205.58
2023-02-07T01:43:39.240Z,207.07
2023-02-07T01:47:00.758Z,193.02
2023-02-07T01:50:32.104Z,196.51
2023-02-07T01:54:15.481Z,196.05
2023-02-07T01:57:36.590Z,190.84
2023-02-07T02:00:58.440Z,194.12
2023-02-07T02:04:19.088Z,194.46
2023-02-07T02:07:42.964Z,200.25
2023-02-07T02:11:47.891Z,211.56
2023-02-07T02:15:38.125Z,223.03
2023-02-07T02:19:44.476Z,229.50
2023-02-07T02:23:39.608Z,220.21
2023-02-07T02:27:18.922Z,218.61
2023-02-07T02:31:16.712Z,216.62
2023-02-07T02:34:58.217Z,219.29
2023-02-07T02:38:33.958Z,223.55
2023-02-07T02:42:10.485Z,226.50
2023-02-07T02:45:42.270Z,223.06
2023-02-07T02:49:20.945Z,206.41
2023-02-07T02:52:50.659Z,167.36
2023-02-07T02:56:32.500Z,142.17
2023-02-07T03:00:06.781Z,136.49
2023-02-07T03:04:24.436Z,139.28
2023-02-07T03:07:58.151Z,170.40
2023-02-07T03:11:17.232Z,161.20
2023-02-07T03:14:37.278Z,165.02
2023-02-07T03:17:57.512Z,159.53
2023-02-07T03:21:14.489Z,163.86
2023-02-07T03:24:32.578Z,163.00
2023-02-07T03:27:43.503Z,145.13
2023-02-07T03:30:57.781Z,131.52
2023-02-07T03:34:14.520Z,114.54
2023-02-07T03:37:30.908Z,122.94
2023-02-07T03:40:47.845Z,141.39
2023-02-07T03:43:57.305Z,155.00
2023-02-07T03:47:03.449Z,165.36
2023-02-07T03:50:11.004Z,163.60
2023-02-07T03:53:17.164Z,166.79
2023-02-07T03:56:26.554Z,176.06
2023-02-07T03:59:34.312Z,192.35
2023-02-07T04:02:41.042Z,190.62
2023-02-07T04:05:49.800Z,183.66
2023-02-07T04:08:56.803Z,182.16
2023-02-07T04:12:07.875Z,160.85
2023-02-07T04:15:16.313Z,147.97
2023-02-07T04:18:22.420Z,155.35
2023-02-07T04:21:32.405Z,149.37
2023-02-07T04:24:38.285Z,150.84
2023-02-07T04:27:47.837Z,145.96
2023-02-07T04:30:54.594Z,153.90
2023-02-07T04:34:04.927Z,149.89
2023-02-07T04:37:11.867Z,160.22
2023-02-07T04:40:19.263Z,168.26
2023-02-07T04:43:28.189Z,179.20
2023-02-07T04:46:41.548Z,170.77
2023-02-07T04:49:47.567Z,139.27
2023-02-07T04:52:57.797Z,123.91
2023-02-07T04:56:06.326Z,128.41
2023-02-07T04:59:15.680Z,131.13
2023-02-07T05:02:21.521Z,133.32
2023-02-07T05:05:28.746Z,133.57
2023-02-07T05:08:34.762Z,130.20
2023-02-07T05:11:41.452Z,130.30
2023-02-07T05:14:50.009Z,129.44
2023-02-07T05:17:57.280Z,127.68
2023-02-07T05:21:07.836Z,127.83
2023-02-07T05:24:14.800Z,128.40
2023-02-07T05:27:20.699Z,124.81
2023-02-07T05:30:30.506Z,136.55
2023-02-07T05:33:36.191Z,217.27
2023-02-07T05:36:43.528Z,211.66
2023-02-07T05:39:49.556Z,214.62
2023-02-07T05:42:57.338Z,234.38
2023-02-07T05:46:06.167Z,214.68
2023-02-07T05:49:16.573Z,213.10
2023-02-07T05:52:22.558Z,204.00
2023-02-07T05:55:29.557Z,223.85
2023-02-07T05:58:35.541Z,222.39
2023-02-07T06:01:43.803Z,212.27
2023-02-07T06:05:04.802Z,190.39
2023-02-07T06:08:25.616Z,191.11
2023-02-07T06:11:33.184Z,199.44
2023-02-07T06:14:39.569Z,225.32
2023-02-07T06:17:49.004Z,206.58
2023-02-07T06:20:55.419Z,198.04
2023-02-07T06:24:02.243Z,213.40
2023-02-07T06:27:12.693Z,233.05
2023-02-07T06:30:19.605Z,250.90
2023-02-07T06:33:28.285Z,257.48
2023-02-07T06:36:35.246Z,234.27
2023-02-07T06:39:41.373Z,221.42
2023-02-07T06:42:53.212Z,230.51
2023-02-07T06:45:59.890Z,247.07
2023-02-07T06:49:11.512Z,254.49
2023-02-07T06:52:17.799Z,255.76
2023-02-07T06:55:24.790Z,261.03
2023-02-07T06:58:37.080Z,255.87
2023-02-07T07:01:44.608Z,257.51
2023-02-07T07:04:53.363Z,235.29
2023-02-07T07:08:01.994Z,219.93
2023-02-07T07:11:08.415Z,222.71
2023-02-07T07:14:16.179Z,227.05
2023-02-07T07:17:22.191Z,242.21
2023-02-07T07:20:38.764Z,262.47
2023-02-07T07:23:44.908Z,247.43
2023-02-07T07:26:54.481Z,250.50
2023-02-07T07:30:00.562Z,242.66
2023-02-07T07:33:10.742Z,215.03
2023-02-07T07:36:19.404Z,227.89
2023-02-07T07:39:26.640Z,223.82
2023-02-07T07:42:32.659Z,224.21
2023-02-07T07:45:59.796Z,222.92
2023-02-07T07:49:05.820Z,219.74
2023-02-07T07:52:15.246Z,203.89
2023-02-07T07:55:21.595Z,183.33
2023-02-07T07:58:30.809Z,155.84
2023-02-07T08:01:36.933Z,161.31
2023-02-07T08:04:43.747Z,167.81
2023-02-07T08:07:52.407Z,174.16
2023-02-07T08:11:05.478Z,214.86
2023-02-07T08:14:11.422Z,194.85
2023-02-07T08:17:23.270Z,241.68
2023-02-07T08:20:36.158Z,257.15
2023-02-07T08:23:45.954Z,275.16
2023-02-07T08:26:51.980Z,299.70
2023-02-07T08:29:58.911Z,292.71
2023-02-07T08:33:05.031Z,273.59
2023-02-07T08:36:12.281Z,261.26
2023-02-07T08:39:27.085Z,253.26
2023-02-07T08:42:36.613Z,253.06
2023-02-07T08:45:42.794Z,258.32
2023-02-07T08:48:50.094Z,261.96
2023-02-07T08:51:56.807Z,258.92
2023-02-07T08:55:08.294Z,260.88
2023-02-07T08:58:14.400Z,272.91
2023-02-07T09:01:23.669Z,280.07
2023-02-07T09:04:29.926Z,282.18
2023-02-07T09:07:36.666Z,260.93
2023-02-07T09:10:47.490Z,219.83
2023-02-07T09:13:54.414Z,210.13
2023-02-07T09:17:03.868Z,205.82
2023-02-07T09:20:11.860Z,201.97
2023-02-07T09:23:20.907Z,209.28
2023-02-07T09:26:32.449Z,217.64
2023-02-07T09:29:38.716Z,199.61
2023-02-07T09:32:46.107Z,158.45
2023-02-07T09:35:54.859Z,153.40
2023-02-07T09:39:03.784Z,161.31
2023-02-07T09:42:34.955Z,147.19
2023-02-07T09:45:51.678Z,154.22
2023-02-07T09:49:13.397Z,164.09
2023-02-07T09:52:32.193Z,171.64
2023-02-07T09:55:52.912Z,187.61
2023-02-07T09:59:25.174Z,190.01
2023-02-07T10:02:47.720Z,176.52
2023-02-07T10:06:17.459Z,169.21
2023-02-07T10:09:43.442Z,172.47
2023-02-07T10:13:41.708Z,172.83
2023-02-07T10:17:31.609Z,162.68
2023-02-07T10:20:49.254Z,161.11
2023-02-07T10:24:27.729Z,172.61
2023-02-07T10:27:48.892Z,151.64
2023-02-07T10:31:05.356Z,149.09
2023-02-07T10:34:24.622Z,129.85
2023-02-07T10:37:40.476Z,144.73
2023-02-07T10:41:03.484Z,152.32
2023-02-07T10:44:16.717Z,159.81
2023-02-07T10:47:26.402Z,148.09
2023-02-07T10:50:35.354Z,153.73
2023-02-07T10:54:04.691Z,153.25
2023-02-07T10:57:23.734Z,179.35
2023-02-07T11:00:38.517Z,150.78
2023-02-07T11:03:44.818Z,140.69
2023-02-07T11:07:04.596Z,140.06
2023-02-07T11:10:21.590Z,157.88
2023-02-07T11:13:32.799Z,144.72
2023-02-07T11:16:39.331Z,147.24
2023-02-07T11:19:49.177Z,152.34
2023-02-07T11:23:00.179Z,155.92
2023-02-07T11:26:08.740Z,168.00
2023-02-07T11:29:22.267Z,165.56
2023-02-07T11:32:31.740Z,175.29
2023-02-07T11:35:40.099Z,173.96
2023-02-07T11:38:53.974Z,172.09
2023-02-07T11:42:04.771Z,175.53
2023-02-07T11:45:18.572Z,176.53
2023-02-07T11:48:31.574Z,196.99
2023-02-07T11:51:40.099Z,282.32
2023-02-07T11:54:57.831Z,202.51
2023-02-07T11:58:17.996Z,206.69
2023-02-07T12:01:32.809Z,186.07
2023-02-07T12:04:42.471Z,199.40
2023-02-07T12:07:55.385Z,192.35
2023-02-07T12:11:15.554Z,198.90
2023-02-07T12:14:35.975Z,196.03
2023-02-07T12:17:59.755Z,202.52
2023-02-07T12:21:21.145Z,224.45
2023-02-07T12:24:37.118Z,205.15
2023-02-07T12:27:53.397Z,198.96
2023-02-07T12:31:17.963Z,199.87
2023-02-07T12:34:36.909Z,182.20
2023-02-07T12:37:55.673Z,194.49
2023-02-07T12:41:15.682Z,202.58
2023-02-07T12:44:37.690Z,181.81
2023-02-07T12:48:07.029Z,168.05
2023-02-07T12:51:33.605Z,180.06
2023-02-07T12:54:58.500Z,183.94
2023-02-07T12:58:31.887Z,163.98
2023-02-07T13:01:52.820Z,155.18
2023-02-07T13:05:46.905Z,155.23
2023-02-07T13:09:10.914Z,151.46
2023-02-07T13:12:28.134Z,137.10
2023-02-07T13:15:50.173Z,129.45
2023-02-07T13:19:14.714Z,123.02
2023-02-07T13:22:40.093Z,129.66
2023-02-07T13:25:53.436Z,129.59
2023-02-07T13:29:04.369Z,113.16
2023-02-07T13:32:21.829Z,113.41
2023-02-07T13:35:38.349Z,98.77
2023-02-07T13:39:11.509Z,97.33
2023-02-07T13:42:36.404Z,89.85
2023-02-07T13:45:59.266Z,95.33
2023-02-07T13:49:22.523Z,95.70
2023-02-07T13:52:46.100Z,88.39
2023-02-07T13:55:53.810Z,90.13
2023-02-07T13:59:12.976Z,95.83
2023-02-07T14:02:24.775Z,100.62
2023-02-07T14:05:37.572Z,102.22
2023-02-07T14:08:48.221Z,94.74
2023-02-07T14:12:04.793Z,103.62
2023-02-07T14:16:02.050Z,96.00
2023-02-07T14:19:14.243Z,134.80
2023-02-07T14:22:24.875Z,107.33
2023-02-07T14:25:46.949Z,89.21
2023-02-07T14:28:52.961Z,91.98
2023-02-07T14:32:04.119Z,90.92
2023-02-07T14:35:40.831Z,83.47
2023-02-07T14:39:07.132Z,79.95
2023-02-07T14:42:24.941Z,74.10
2023-02-07T14:45:36.340Z,78.74
2023-02-07T14:48:54.291Z,83.50
2023-02-07T14:52:10.682Z,90.52
2023-02-07T14:55:27.575Z,84.62
2023-02-07T14:58:45.663Z,84.12
2023-02-07T15:01:51.681Z,80.58
2023-02-07T15:04:58.588Z,74.47
2023-02-07T15:08:22.091Z,65.44
2023-02-07T15:11:30.649Z,67.49
2023-02-07T15:14:39.713Z,68.53
2023-02-07T15:17:47.829Z,72.51
2023-02-07T15:20:59.490Z,69.66
2023-02-07T15:24:19.822Z,69.61
2023-02-07T15:27:28.831Z,71.01
2023-02-07T15:30:37.381Z,81.11
2023-02-07T15:33:53.777Z,83.47
2023-02-07T15:37:03.989Z,81.34
2023-02-07T15:40:20.486Z,80.36
2023-02-07T15:43:35.498Z,79.48
2023-02-07T15:46:54.489Z,76.87
2023-02-07T15:50:04.153Z,72.95
2023-02-07T15:53:11.960Z,70.14
2023-02-07T15:56:22.901Z,70.46
2023-02-07T15:59:34.670Z,72.33
2023-02-07T16:02:51.603Z,75.26
2023-02-07T16:06:10.285Z,79.22
2023-02-07T16:09:40.555Z,79.78
2023-02-07T16:12:53.356Z,79.17
2023-02-07T16:16:03.515Z,78.77
2023-02-07T16:19:20.457Z,88.23
2023-02-07T16:22:34.725Z,109.58
2023-02-07T16:25:41.228Z,118.51
2023-02-07T16:28:51.724Z,122.95
2023-02-07T16:31:59.315Z,128.12
2023-02-07T16:35:06.161Z,134.11
2023-02-07T16:38:12.155Z,115.65
2023-02-07T16:41:32.613Z,113.26
2023-02-07T16:44:41.258Z,114.15
2023-02-07T16:47:49.679Z,118.90
2023-02-07T16:50:55.708Z,121.04
2023-02-07T16:54:02.560Z,120.89
2023-02-07T16:57:08.927Z,126.79
2023-02-07T17:00:24.122Z,127.92
2023-02-07T17:03:30.192Z,124.91
2023-02-07T17:06:37.187Z,120.95
2023-02-07T17:09:43.312Z,113.12
2023-02-07T17:12:50.738Z,96.78
2023-02-07T17:15:59.776Z,102.73
2023-02-07T17:19:14.393Z,99.12
2023-02-07T17:22:20.397Z,128.71
2023-02-07T17:25:30.931Z,113.93
2023-02-07T17:28:37.578Z,107.95
2023-02-07T17:31:49.482Z,103.14
2023-02-07T17:34:55.741Z,98.31
2023-02-07T17:38:03.086Z,91.08
2023-02-07T17:41:10.026Z,87.39
2023-02-07T17:44:21.595Z,84.79
2023-02-07T17:47:30.126Z,85.29
2023-02-07T17:50:41.569Z,84.87
2023-02-07T17:53:47.657Z,84.44
2023-02-07T17:56:55.687Z,85.27
2023-02-07T18:00:01.849Z,86.52
2023-02-07T18:03:21.994Z,86.96
2023-02-07T18:06:31.398Z,89.52
2023-02-07T18:09:38.290Z,90.79
2023-02-07T18:12:44.406Z,91.95
2023-02-07T18:15:51.638Z,94.19
2023-02-07T18:19:01.017Z,94.70
2023-02-07T18:22:08.785Z,102.00
2023-02-07T18:25:15.555Z,116.50
2023-02-07T18:28:22.582Z,118.70
2023-02-07T18:31:28.876Z,109.33
2023-02-07T18:34:38.703Z,112.99
2023-02-07T18:37:45.177Z,121.26
2023-02-07T18:40:52.029Z,140.18
2023-02-07T18:43:58.014Z,107.20
2023-02-07T18:47:04.886Z,90.69
2023-02-07T18:50:15.923Z,89.75
2023-02-07T18:53:23.202Z,91.55
2023-02-07T18:56:30.148Z,91.64
2023-02-07T18:59:37.739Z,91.75
2023-02-07T19:02:43.902Z,93.44
2023-02-07T19:05:53.263Z,149.40
2023-02-07T19:09:00.411Z,113.32
2023-02-07T19:12:09.869Z,124.94
2023-02-07T19:15:16.911Z,140.09
2023-02-07T19:18:24.116Z,102.38
2023-02-07T19:21:33.272Z,98.22
2023-02-07T19:24:42.318Z,97.41
2023-02-07T19:27:48.465Z,96.58
2023-02-07T19:30:55.329Z,95.66
2023-02-07T19:34:03.187Z,95.66
2023-02-07T19:37:12.701Z,94.22
2023-02-07T19:40:18.938Z,97.52
2023-02-07T19:43:26.321Z,99.83
2023-02-07T19:46:33.005Z,102.50
2023-02-07T19:49:40.400Z,103.46
2023-02-07T19:52:49.081Z,103.54
2023-02-07T19:55:56.116Z,107.29
2023-02-07T19:59:04.345Z,109.72
2023-02-07T20:02:11.308Z,112.91
2023-02-07T20:05:17.424Z,109.88
2023-02-07T20:08:27.035Z,105.93
2023-02-07T20:11:34.070Z,103.36
2023-02-07T20:14:41.243Z,104.81
2023-02-07T20:17:51.181Z,107.54
2023-02-07T20:21:06.224Z,107.06
2023-02-07T20:24:21.858Z,104.10
2023-02-07T20:27:30.441Z,99.05
2023-02-07T20:30:38.326Z,99.56
2023-02-07T20:33:50.605Z,90.74
2023-02-07T20:36:59.000Z,89.41
2023-02-07T20:40:09.579Z,91.60
2023-02-07T20:43:15.709Z,91.29
2023-02-07T20:46:22.703Z,140.02
2023-02-07T20:49:37.215Z,97.02
2023-02-07T20:52:43.977Z,90.54
2023-02-07T20:55:52.617Z,92.91
2023-02-07T20:59:00.893Z,87.45
2023-02-07T21:02:09.915Z,87.21
2023-02-07T21:05:17.563Z,88.68
2023-02-07T21:08:25.248Z,89.79
2023-02-07T21:11:42.505Z,92.37
2023-02-07T21:14:52.607Z,97.10
2023-02-07T21:17:59.426Z,95.26
2023-02-07T21:21:14.178Z,91.26
2023-02-07T21:24:22.070Z,91.59
2023-02-07T21:27:30.723Z,97.40
2023-02-07T21:30:41.849Z,106.36
2023-02-07T21:33:49.868Z,101.66
2023-02-07T21:37:01.933Z,95.15
2023-02-07T21:40:09.917Z,91.40
2023-02-07T21:43:22.012Z,91.33
2023-02-07T21:46:33.086Z,90.84
2023-02-07T21:49:39.984Z,90.50
2023-02-07T21:52:46.006Z,89.17
2023-02-07T21:55:52.890Z,91.21
2023-02-07T21:59:05.229Z,94.50
2023-02-07T22:02:14.882Z,94.52
2023-02-07T22:05:21.255Z,92.35
2023-02-07T22:08:28.075Z,91.44
2023-02-07T22:11:37.820Z,92.05
2023-02-07T22:14:47.316Z,98.23
2023-02-07T22:17:53.240Z,99.35
2023-02-07T22:21:07.463Z,101.66
2023-02-07T22:24:18.490Z,98.57
2023-02-07T22:27:25.302Z,94.37
2023-02-07T22:30:33.899Z,85.50
2023-02-07T22:33:40.856Z,79.51
2023-02-07T22:36:48.923Z,78.06
2023-02-07T22:39:55.626Z,79.36
2023-02-07T22:43:01.507Z,83.76
2023-02-07T22:46:16.060Z,85.31
2023-02-07T22:49:22.213Z,82.63
2023-02-07T22:52:29.176Z,85.64
2023-02-07T22:55:36.621Z,84.22
2023-02-07T22:58:44.655Z,84.94
2023-02-07T23:01:53.405Z,85.73
2023-02-07T23:05:00.244Z,91.02
2023-02-07T23:08:06.319Z,90.70
2023-02-07T23:11:21.912Z,98.57
2023-02-07T23:14:27.856Z,92.19
2023-02-07T23:17:37.646Z,85.09
2023-02-07T23:20:47.576Z,85.81
2023-02-07T23:23:54.753Z,84.90
2023-02-07T23:27:00.622Z,87.31
2023-02-07T23:30:08.408Z,88.77
2023-02-07T23:33:16.932Z,91.12
2023-02-07T23:36:24.817Z,91.74
2023-02-07T23:39:30.829Z,87.93
2023-02-07T23:42:38.053Z,89.53
2023-02-07T23:45:44.143Z,93.99
2023-02-07T23:48:53.580Z,91.74
2023-02-07T23:51:59.483Z,92.83
2023-02-07T23:55:23.124Z,100.77
2023-02-07T23:58:31.233Z,96.27
